sensor_id;sensor_type;location;lat;lon;timestamp;P1;durP1;ratioP1;P2;durP2;ratioP2
23470;SDS011;11908;50.806;4.424;2022-09-13T00:01:36;3.92;;;2.50;;
23470;SDS011;11908;50.806;4.424;2022-09-13T00:04:02;11.18;;;2.75;;
23470;SDS011;11908;50.806;4.424;2022-09-13T00:06:28;4.57;;;2.45;;
23470;SDS011;11908;50.806;4.424;2022-09-13T00:08:54;7.80;;;2.30;;
23470;SDS011;11908;50.806;4.424;2022-09-13T00:11:21;6.57;;;2.33;;
23470;SDS011;11908;50.806;4.424;2022-09-13T00:13:48;6.85;;;2.67;;
23470;SDS011;11908;50.806;4.424;2022-09-13T00:16:15;7.68;;;2.58;;
23470;SDS011;11908;50.806;4.424;2022-09-13T00:18:42;8.88;;;2.75;;
23470;SDS011;11908;50.806;4.424;2022-09-13T00:21:09;5.53;;;2.10;;
23470;SDS011;11908;50.806;4.424;2022-09-13T00:23:37;9.13;;;2.45;;
23470;SDS011;11908;50.806;4.424;2022-09-13T00:26:07;5.95;;;2.55;;
23470;SDS011;11908;50.806;4.424;2022-09-13T00:28:37;3.97;;;2.42;;
23470;SDS011;11908;50.806;4.424;2022-09-13T00:31:04;3.35;;;2.30;;
23470;SDS011;11908;50.806;4.424;2022-09-13T00:33:31;10.30;;;2.60;;
23470;SDS011;11908;50.806;4.424;2022-09-13T00:35:57;6.43;;;2.10;;
23470;SDS011;11908;50.806;4.424;2022-09-13T00:38:23;6.22;;;2.05;;
23470;SDS011;11908;50.806;4.424;2022-09-13T00:40:48;3.67;;;2.22;;
23470;SDS011;11908;50.806;4.424;2022-09-13T00:43:18;2.97;;;2.17;;
23470;SDS011;11908;50.806;4.424;2022-09-13T00:45:46;8.80;;;2.33;;
23470;SDS011;11908;50.806;4.424;2022-09-13T00:48:15;5.57;;;2.50;;
23470;SDS011;11908;50.806;4.424;2022-09-13T00:50:47;5.50;;;2.40;;
23470;SDS011;11908;50.806;4.424;2022-09-13T00:53:24;8.27;;;2.28;;
23470;SDS011;11908;50.806;4.424;2022-09-13T00:56:05;5.32;;;2.17;;
23470;SDS011;11908;50.806;4.424;2022-09-13T00:58:40;4.45;;;2.50;;
23470;SDS011;11908;50.806;4.424;2022-09-13T01:01:13;4.20;;;1.90;;
23470;SDS011;11908;50.806;4.424;2022-09-13T01:03:40;11.65;;;2.53;;
23470;SDS011;11908;50.806;4.424;2022-09-13T01:06:10;7.25;;;2.42;;
23470;SDS011;11908;50.806;4.424;2022-09-13T01:08:39;7.35;;;2.30;;
23470;SDS011;11908;50.806;4.424;2022-09-13T01:11:12;4.90;;;1.98;;
23470;SDS011;11908;50.806;4.424;2022-09-13T01:13:44;10.90;;;2.22;;
23470;SDS011;11908;50.806;4.424;2022-09-13T01:16:10;2.08;;;1.83;;
23470;SDS011;11908;50.806;4.424;2022-09-13T01:18:36;7.53;;;1.90;;
23470;SDS011;11908;50.806;4.424;2022-09-13T01:31:53;3.33;;;2.20;;
23470;SDS011;11908;50.806;4.424;2022-09-13T01:37:49;5.03;;;2.13;;
23470;SDS011;11908;50.806;4.424;2022-09-13T01:40:31;15.73;;;2.88;;
23470;SDS011;11908;50.806;4.424;2022-09-13T01:43:16;6.18;;;2.40;;
23470;SDS011;11908;50.806;4.424;2022-09-13T01:46:15;14.35;;;2.63;;
23470;SDS011;11908;50.806;4.424;2022-09-13T01:48:58;3.90;;;2.25;;
23470;SDS011;11908;50.806;4.424;2022-09-13T01:51:29;8.50;;;2.63;;
23470;SDS011;11908;50.806;4.424;2022-09-13T01:56:54;13.57;;;2.55;;
23470;SDS011;11908;50.806;4.424;2022-09-13T02:02:15;4.47;;;2.45;;
23470;SDS011;11908;50.806;4.424;2022-09-13T02:04:58;9.07;;;2.40;;
23470;SDS011;11908;50.806;4.424;2022-09-13T02:07:32;5.38;;;2.33;;
23470;SDS011;11908;50.806;4.424;2022-09-13T02:10:05;4.75;;;2.35;;
23470;SDS011;11908;50.806;4.424;2022-09-13T02:12:41;6.95;;;2.20;;
23470;SDS011;11908;50.806;4.424;2022-09-13T02:15:15;6.32;;;2.30;;
23470;SDS011;11908;50.806;4.424;2022-09-13T02:17:53;9.35;;;2.47;;
23470;SDS011;11908;50.806;4.424;2022-09-13T02:20:30;11.10;;;2.72;;
23470;SDS011;11908;50.806;4.424;2022-09-13T02:23:06;4.07;;;2.20;;
23470;SDS011;11908;50.806;4.424;2022-09-13T02:25:37;7.35;;;2.20;;
23470;SDS011;11908;50.806;4.424;2022-09-13T02:28:05;4.35;;;2.30;;
23470;SDS011;11908;50.806;4.424;2022-09-13T02:30:36;8.23;;;2.10;;
23470;SDS011;11908;50.806;4.424;2022-09-13T02:33:17;12.13;;;2.10;;
23470;SDS011;11908;50.806;4.424;2022-09-13T02:35:56;8.23;;;2.30;;
23470;SDS011;11908;50.806;4.424;2022-09-13T02:41:23;8.63;;;2.40;;
23470;SDS011;11908;50.806;4.424;2022-09-13T02:44:17;10.00;;;2.50;;
23470;SDS011;11908;50.806;4.424;2022-09-13T02:49:41;10.13;;;2.78;;
23470;SDS011;11908;50.806;4.424;2022-09-13T02:52:31;6.03;;;2.15;;
23470;SDS011;11908;50.806;4.424;2022-09-13T02:55:10;5.80;;;2.58;;
23470;SDS011;11908;50.806;4.424;2022-09-13T03:00:47;3.30;;;1.83;;
23470;SDS011;11908;50.806;4.424;2022-09-13T03:03:14;7.70;;;2.38;;
23470;SDS011;11908;50.806;4.424;2022-09-13T03:05:40;6.32;;;2.22;;
23470;SDS011;11908;50.806;4.424;2022-09-13T03:08:07;6.93;;;2.85;;
23470;SDS011;11908;50.806;4.424;2022-09-13T03:10:43;3.70;;;2.08;;
23470;SDS011;11908;50.806;4.424;2022-09-13T03:16:18;5.70;;;2.30;;
23470;SDS011;11908;50.806;4.424;2022-09-13T03:27:25;6.15;;;2.70;;
23470;SDS011;11908;50.806;4.424;2022-09-13T03:30:16;3.47;;;2.20;;
23470;SDS011;11908;50.806;4.424;2022-09-13T03:38:14;4.70;;;2.10;;
23470;SDS011;11908;50.806;4.424;2022-09-13T03:41:12;9.70;;;2.20;;
23470;SDS011;11908;50.806;4.424;2022-09-13T03:43:45;7.38;;;2.30;;
23470;SDS011;11908;50.806;4.424;2022-09-13T03:46:22;6.05;;;2.10;;
23470;SDS011;11908;50.806;4.424;2022-09-13T03:49:03;10.35;;;2.53;;
23470;SDS011;11908;50.806;4.424;2022-09-13T03:51:42;6.63;;;2.40;;
23470;SDS011;11908;50.806;4.424;2022-09-13T03:54:10;9.93;;;2.60;;
23470;SDS011;11908;50.806;4.424;2022-09-13T03:56:41;7.87;;;2.03;;
23470;SDS011;11908;50.806;4.424;2022-09-13T03:59:07;6.65;;;2.40;;
23470;SDS011;11908;50.806;4.424;2022-09-13T04:01:33;6.63;;;2.40;;
23470;SDS011;11908;50.806;4.424;2022-09-13T04:03:59;9.77;;;2.90;;
23470;SDS011;11908;50.806;4.424;2022-09-13T04:06:24;3.33;;;2.33;;
23470;SDS011;11908;50.806;4.424;2022-09-13T04:08:50;10.38;;;2.75;;
23470;SDS011;11908;50.806;4.424;2022-09-13T04:11:16;3.78;;;2.58;;
23470;SDS011;11908;50.806;4.424;2022-09-13T04:13:41;9.98;;;2.22;;
23470;SDS011;11908;50.806;4.424;2022-09-13T04:16:07;8.82;;;2.67;;
23470;SDS011;11908;50.806;4.424;2022-09-13T04:18:33;6.95;;;2.20;;
23470;SDS011;11908;50.806;4.424;2022-09-13T04:21:00;8.48;;;2.33;;
23470;SDS011;11908;50.806;4.424;2022-09-13T04:23:27;8.68;;;2.50;;
23470;SDS011;11908;50.806;4.424;2022-09-13T04:25:53;9.82;;;2.70;;
23470;SDS011;11908;50.806;4.424;2022-09-13T04:28:21;7.28;;;2.83;;
23470;SDS011;11908;50.806;4.424;2022-09-13T04:30:47;7.78;;;2.63;;
23470;SDS011;11908;50.806;4.424;2022-09-13T04:33:13;6.43;;;2.40;;
23470;SDS011;11908;50.806;4.424;2022-09-13T04:35:41;6.03;;;2.63;;
23470;SDS011;11908;50.806;4.424;2022-09-13T04:38:07;10.50;;;2.58;;
23470;SDS011;11908;50.806;4.424;2022-09-13T04:40:33;7.72;;;3.13;;
23470;SDS011;11908;50.806;4.424;2022-09-13T04:42:59;14.68;;;3.10;;
23470;SDS011;11908;50.806;4.424;2022-09-13T04:45:26;9.65;;;3.30;;
23470;SDS011;11908;50.806;4.424;2022-09-13T04:47:52;8.40;;;3.13;;
23470;SDS011;11908;50.806;4.424;2022-09-13T04:50:19;9.55;;;3.40;;
23470;SDS011;11908;50.806;4.424;2022-09-13T04:52:45;7.53;;;2.45;;
23470;SDS011;11908;50.806;4.424;2022-09-13T04:55:11;6.40;;;2.30;;
23470;SDS011;11908;50.806;4.424;2022-09-13T04:57:38;8.07;;;2.58;;
23470;SDS011;11908;50.806;4.424;2022-09-13T05:00:04;8.88;;;3.55;;
23470;SDS011;11908;50.806;4.424;2022-09-13T05:02:31;4.07;;;2.25;;
23470;SDS011;11908;50.806;4.424;2022-09-13T05:04:56;6.97;;;2.58;;
23470;SDS011;11908;50.806;4.424;2022-09-13T05:07:22;6.20;;;2.80;;
23470;SDS011;11908;50.806;4.424;2022-09-13T05:09:48;3.95;;;2.45;;
23470;SDS011;11908;50.806;4.424;2022-09-13T05:12:13;6.07;;;2.58;;
23470;SDS011;11908;50.806;4.424;2022-09-13T05:14:39;8.23;;;2.75;;
23470;SDS011;11908;50.806;4.424;2022-09-13T05:17:05;4.35;;;2.85;;
23470;SDS011;11908;50.806;4.424;2022-09-13T05:19:31;8.68;;;3.10;;
23470;SDS011;11908;50.806;4.424;2022-09-13T05:21:56;7.75;;;2.60;;
23470;SDS011;11908;50.806;4.424;2022-09-13T05:24:22;8.95;;;2.70;;
23470;SDS011;11908;50.806;4.424;2022-09-13T05:26:47;3.88;;;2.67;;
23470;SDS011;11908;50.806;4.424;2022-09-13T05:29:13;7.93;;;2.80;;
23470;SDS011;11908;50.806;4.424;2022-09-13T05:31:39;6.35;;;2.47;;
23470;SDS011;11908;50.806;4.424;2022-09-13T05:34:07;8.10;;;2.67;;
23470;SDS011;11908;50.806;4.424;2022-09-13T05:36:38;5.13;;;3.50;;
23470;SDS011;11908;50.806;4.424;2022-09-13T05:39:04;15.05;;;3.28;;
23470;SDS011;11908;50.806;4.424;2022-09-13T05:41:30;16.73;;;3.72;;
23470;SDS011;11908;50.806;4.424;2022-09-13T05:43:56;8.00;;;3.63;;
23470;SDS011;11908;50.806;4.424;2022-09-13T05:46:22;15.90;;;3.60;;
23470;SDS011;11908;50.806;4.424;2022-09-13T05:48:48;14.50;;;3.95;;
23470;SDS011;11908;50.806;4.424;2022-09-13T05:51:15;12.85;;;4.10;;
23470;SDS011;11908;50.806;4.424;2022-09-13T05:53:43;19.08;;;3.97;;
23470;SDS011;11908;50.806;4.424;2022-09-13T05:56:14;12.90;;;4.00;;
23470;SDS011;11908;50.806;4.424;2022-09-13T05:58:45;13.40;;;4.10;;
23470;SDS011;11908;50.806;4.424;2022-09-13T06:01:13;12.18;;;3.97;;
23470;SDS011;11908;50.806;4.424;2022-09-13T06:03:40;14.00;;;3.65;;
23470;SDS011;11908;50.806;4.424;2022-09-13T06:06:06;12.75;;;4.10;;
23470;SDS011;11908;50.806;4.424;2022-09-13T06:08:32;10.50;;;4.03;;
23470;SDS011;11908;50.806;4.424;2022-09-13T06:11:00;11.15;;;3.65;;
23470;SDS011;11908;50.806;4.424;2022-09-13T06:13:28;8.43;;;3.33;;
23470;SDS011;11908;50.806;4.424;2022-09-13T06:15:54;8.63;;;3.47;;
23470;SDS011;11908;50.806;4.424;2022-09-13T06:18:21;8.80;;;3.80;;
23470;SDS011;11908;50.806;4.424;2022-09-13T06:20:48;6.78;;;3.40;;
23470;SDS011;11908;50.806;4.424;2022-09-13T06:23:14;11.77;;;3.53;;
23470;SDS011;11908;50.806;4.424;2022-09-13T06:25:40;8.60;;;3.55;;
23470;SDS011;11908;50.806;4.424;2022-09-13T06:28:09;11.10;;;4.40;;
23470;SDS011;11908;50.806;4.424;2022-09-13T06:30:34;12.07;;;3.60;;
23470;SDS011;11908;50.806;4.424;2022-09-13T06:33:00;11.75;;;3.28;;
23470;SDS011;11908;50.806;4.424;2022-09-13T06:35:26;5.70;;;3.33;;
23470;SDS011;11908;50.806;4.424;2022-09-13T06:37:55;11.40;;;3.25;;
23470;SDS011;11908;50.806;4.424;2022-09-13T06:40:24;7.85;;;3.50;;
23470;SDS011;11908;50.806;4.424;2022-09-13T06:42:50;10.25;;;3.45;;
23470;SDS011;11908;50.806;4.424;2022-09-13T06:45:16;7.95;;;3.78;;
23470;SDS011;11908;50.806;4.424;2022-09-13T06:47:42;8.77;;;4.10;;
23470;SDS011;11908;50.806;4.424;2022-09-13T06:50:09;16.85;;;3.80;;
23470;SDS011;11908;50.806;4.424;2022-09-13T06:52:34;14.93;;;4.15;;
23470;SDS011;11908;50.806;4.424;2022-09-13T06:55:00;19.10;;;3.80;;
23470;SDS011;11908;50.806;4.424;2022-09-13T06:57:28;14.32;;;4.22;;
23470;SDS011;11908;50.806;4.424;2022-09-13T06:59:54;10.50;;;4.03;;
23470;SDS011;11908;50.806;4.424;2022-09-13T07:02:20;23.80;;;4.20;;
23470;SDS011;11908;50.806;4.424;2022-09-13T07:04:46;23.48;;;4.60;;
23470;SDS011;11908;50.806;4.424;2022-09-13T07:07:11;15.15;;;3.95;;
23470;SDS011;11908;50.806;4.424;2022-09-13T07:09:37;12.18;;;3.92;;
23470;SDS011;11908;50.806;4.424;2022-09-13T07:12:04;13.45;;;4.07;;
23470;SDS011;11908;50.806;4.424;2022-09-13T07:14:30;21.23;;;3.85;;
23470;SDS011;11908;50.806;4.424;2022-09-13T07:16:55;8.82;;;3.67;;
23470;SDS011;11908;50.806;4.424;2022-09-13T07:19:25;10.70;;;3.78;;
23470;SDS011;11908;50.806;4.424;2022-09-13T07:21:53;11.85;;;3.42;;
23470;SDS011;11908;50.806;4.424;2022-09-13T07:24:20;8.52;;;2.75;;
23470;SDS011;11908;50.806;4.424;2022-09-13T07:26:46;7.85;;;3.42;;
23470;SDS011;11908;50.806;4.424;2022-09-13T07:29:14;6.43;;;2.90;;
23470;SDS011;11908;50.806;4.424;2022-09-13T07:31:43;10.10;;;3.20;;
23470;SDS011;11908;50.806;4.424;2022-09-13T07:34:15;4.07;;;3.10;;
23470;SDS011;11908;50.806;4.424;2022-09-13T07:36:42;10.52;;;3.00;;
23470;SDS011;11908;50.806;4.424;2022-09-13T07:39:10;3.15;;;2.67;;
23470;SDS011;11908;50.806;4.424;2022-09-13T07:41:37;8.18;;;3.20;;
23470;SDS011;11908;50.806;4.424;2022-09-13T07:44:03;5.75;;;2.92;;
23470;SDS011;11908;50.806;4.424;2022-09-13T07:46:30;5.20;;;2.92;;
23470;SDS011;11908;50.806;4.424;2022-09-13T07:48:57;6.78;;;2.60;;
23470;SDS011;11908;50.806;4.424;2022-09-13T07:51:28;5.03;;;2.70;;
23470;SDS011;11908;50.806;4.424;2022-09-13T07:53:57;4.80;;;2.30;;
23470;SDS011;11908;50.806;4.424;2022-09-13T07:56:25;6.60;;;2.55;;
23470;SDS011;11908;50.806;4.424;2022-09-13T07:58:52;7.90;;;2.65;;
23470;SDS011;11908;50.806;4.424;2022-09-13T08:01:22;4.57;;;2.38;;
23470;SDS011;11908;50.806;4.424;2022-09-13T08:03:53;4.13;;;2.30;;
23470;SDS011;11908;50.806;4.424;2022-09-13T08:06:21;3.40;;;1.90;;
23470;SDS011;11908;50.806;4.424;2022-09-13T08:08:47;4.97;;;2.00;;
23470;SDS011;11908;50.806;4.424;2022-09-13T08:11:17;5.78;;;1.80;;
23470;SDS011;11908;50.806;4.424;2022-09-13T08:13:48;5.75;;;1.70;;
23470;SDS011;11908;50.806;4.424;2022-09-13T08:16:16;4.40;;;1.70;;
23470;SDS011;11908;50.806;4.424;2022-09-13T08:18:44;3.88;;;1.70;;
23470;SDS011;11908;50.806;4.424;2022-09-13T08:21:10;6.78;;;1.95;;
23470;SDS011;11908;50.806;4.424;2022-09-13T08:23:37;3.42;;;1.50;;
23470;SDS011;11908;50.806;4.424;2022-09-13T08:26:03;5.28;;;2.00;;
23470;SDS011;11908;50.806;4.424;2022-09-13T08:28:30;3.88;;;2.03;;
23470;SDS011;11908;50.806;4.424;2022-09-13T08:31:01;5.00;;;1.83;;
23470;SDS011;11908;50.806;4.424;2022-09-13T08:33:30;5.20;;;1.95;;
23470;SDS011;11908;50.806;4.424;2022-09-13T08:35:57;8.05;;;2.17;;
23470;SDS011;11908;50.806;4.424;2022-09-13T08:38:24;5.22;;;1.98;;
23470;SDS011;11908;50.806;4.424;2022-09-13T08:40:52;6.00;;;2.20;;
23470;SDS011;11908;50.806;4.424;2022-09-13T08:45:58;6.10;;;2.30;;
23470;SDS011;11908;50.806;4.424;2022-09-13T08:48:34;6.18;;;2.15;;
23470;SDS011;11908;50.806;4.424;2022-09-13T08:51:04;9.27;;;2.60;;
23470;SDS011;11908;50.806;4.424;2022-09-13T08:53:32;9.43;;;2.17;;
23470;SDS011;11908;50.806;4.424;2022-09-13T08:56:09;9.90;;;2.17;;
23470;SDS011;11908;50.806;4.424;2022-09-13T08:58:45;8.48;;;2.10;;
23470;SDS011;11908;50.806;4.424;2022-09-13T09:01:38;9.02;;;2.40;;
23470;SDS011;11908;50.806;4.424;2022-09-13T09:07:15;7.85;;;2.13;;
23470;SDS011;11908;50.806;4.424;2022-09-13T09:12:54;6.47;;;2.10;;
23470;SDS011;11908;50.806;4.424;2022-09-13T09:18:05;6.18;;;3.15;;
23470;SDS011;11908;50.806;4.424;2022-09-13T09:20:40;8.15;;;3.10;;
23470;SDS011;11908;50.806;4.424;2022-09-13T09:23:18;7.13;;;3.70;;
23470;SDS011;11908;50.806;4.424;2022-09-13T09:26:13;7.75;;;3.92;;
23470;SDS011;11908;50.806;4.424;2022-09-13T09:29:32;11.98;;;3.72;;
23470;SDS011;11908;50.806;4.424;2022-09-13T09:39:44;9.20;;;3.75;;
23470;SDS011;11908;50.806;4.424;2022-09-13T09:42:14;7.38;;;3.53;;
23470;SDS011;11908;50.806;4.424;2022-09-13T09:44:54;9.93;;;3.80;;
23470;SDS011;11908;50.806;4.424;2022-09-13T09:47:27;8.15;;;3.40;;
23470;SDS011;11908;50.806;4.424;2022-09-13T09:50:01;12.15;;;3.38;;
23470;SDS011;11908;50.806;4.424;2022-09-13T09:52:56;14.60;;;3.80;;
23470;SDS011;11908;50.806;4.424;2022-09-13T09:55:29;7.50;;;3.08;;
23470;SDS011;11908;50.806;4.424;2022-09-13T09:58:00;5.90;;;3.03;;
23470;SDS011;11908;50.806;4.424;2022-09-13T10:00:31;7.75;;;3.78;;
23470;SDS011;11908;50.806;4.424;2022-09-13T10:03:00;14.93;;;3.70;;
23470;SDS011;11908;50.806;4.424;2022-09-13T10:05:29;9.00;;;2.95;;
23470;SDS011;11908;50.806;4.424;2022-09-13T10:08:06;7.32;;;3.55;;
23470;SDS011;11908;50.806;4.424;2022-09-13T10:10:50;10.88;;;3.25;;
23470;SDS011;11908;50.806;4.424;2022-09-13T10:13:19;13.73;;;3.22;;
23470;SDS011;11908;50.806;4.424;2022-09-13T10:15:53;10.25;;;3.17;;
23470;SDS011;11908;50.806;4.424;2022-09-13T10:18:23;7.95;;;3.13;;
23470;SDS011;11908;50.806;4.424;2022-09-13T10:21:00;7.72;;;2.97;;
23470;SDS011;11908;50.806;4.424;2022-09-13T10:23:34;9.13;;;2.80;;
23470;SDS011;11908;50.806;4.424;2022-09-13T10:28:40;6.55;;;2.63;;
23470;SDS011;11908;50.806;4.424;2022-09-13T10:31:13;5.18;;;2.55;;
23470;SDS011;11908;50.806;4.424;2022-09-13T10:36:16;7.38;;;2.85;;
23470;SDS011;11908;50.806;4.424;2022-09-13T10:38:52;7.63;;;2.65;;
23470;SDS011;11908;50.806;4.424;2022-09-13T10:41:28;4.95;;;2.63;;
23470;SDS011;11908;50.806;4.424;2022-09-13T10:44:00;4.72;;;2.35;;
23470;SDS011;11908;50.806;4.424;2022-09-13T10:46:31;7.78;;;2.35;;
23470;SDS011;11908;50.806;4.424;2022-09-13T10:48:59;7.75;;;2.17;;
23470;SDS011;11908;50.806;4.424;2022-09-13T10:53:50;7.25;;;2.22;;
23470;SDS011;11908;50.806;4.424;2022-09-13T10:56:43;5.90;;;2.28;;
23470;SDS011;11908;50.806;4.424;2022-09-13T11:10:28;10.02;;;2.60;;
23470;SDS011;11908;50.806;4.424;2022-09-13T11:15:59;5.68;;;2.55;;
23470;SDS011;11908;50.806;4.424;2022-09-13T11:18:48;7.90;;;2.50;;
23470;SDS011;11908;50.806;4.424;2022-09-13T11:21:23;6.35;;;2.67;;
23470;SDS011;11908;50.806;4.424;2022-09-13T11:24:07;6.82;;;2.72;;
23470;SDS011;11908;50.806;4.424;2022-09-13T11:37:32;3.63;;;2.38;;
23470;SDS011;11908;50.806;4.424;2022-09-13T11:45:51;6.70;;;2.40;;
23470;SDS011;11908;50.806;4.424;2022-09-13T11:56:34;8.32;;;2.33;;
23470;SDS011;11908;50.806;4.424;2022-09-13T12:01:40;7.15;;;2.40;;
23470;SDS011;11908;50.806;4.424;2022-09-13T12:04:11;10.10;;;2.47;;
23470;SDS011;11908;50.806;4.424;2022-09-13T12:06:41;8.07;;;2.00;;
23470;SDS011;11908;50.806;4.424;2022-09-13T12:09:18;9.45;;;2.20;;
23470;SDS011;11908;50.806;4.424;2022-09-13T12:11:53;6.28;;;2.20;;
23470;SDS011;11908;50.806;4.424;2022-09-13T12:14:31;5.15;;;2.25;;
23470;SDS011;11908;50.806;4.424;2022-09-13T12:20:04;4.45;;;2.08;;
23470;SDS011;11908;50.806;4.424;2022-09-13T12:25:04;4.13;;;2.17;;
23470;SDS011;11908;50.806;4.424;2022-09-13T12:28:01;6.85;;;2.22;;
23470;SDS011;11908;50.806;4.424;2022-09-13T12:30:38;6.45;;;2.72;;
23470;SDS011;11908;50.806;4.424;2022-09-13T12:33:12;5.82;;;2.40;;
23470;SDS011;11908;50.806;4.424;2022-09-13T12:35:44;6.05;;;2.75;;
23470;SDS011;11908;50.806;4.424;2022-09-13T13:03:21;8.82;;;2.22;;
23470;SDS011;11908;50.806;4.424;2022-09-13T13:06:05;7.68;;;2.30;;
23470;SDS011;11908;50.806;4.424;2022-09-13T13:08:32;6.68;;;2.30;;
23470;SDS011;11908;50.806;4.424;2022-09-13T13:13:31;4.32;;;2.42;;
23470;SDS011;11908;50.806;4.424;2022-09-13T13:16:20;5.20;;;2.38;;
23470;SDS011;11908;50.806;4.424;2022-09-13T13:19:37;5.55;;;2.65;;
23470;SDS011;11908;50.806;4.424;2022-09-13T13:21:53;10.13;;;2.30;;
23470;SDS011;11908;50.806;4.424;2022-09-13T13:26:49;9.02;;;2.40;;
23470;SDS011;11908;50.806;4.424;2022-09-13T13:29:23;8.30;;;2.70;;
23470;SDS011;11908;50.806;4.424;2022-09-13T13:34:27;4.43;;;2.50;;
23470;SDS011;11908;50.806;4.424;2022-09-13T13:39:45;14.93;;;2.60;;
23470;SDS011;11908;50.806;4.424;2022-09-13T13:42:25;8.70;;;2.42;;
23470;SDS011;11908;50.806;4.424;2022-09-13T13:45:44;5.65;;;2.60;;
23470;SDS011;11908;50.806;4.424;2022-09-13T13:48:08;5.82;;;2.83;;
23470;SDS011;11908;50.806;4.424;2022-09-13T13:51:11;8.95;;;2.70;;
23470;SDS011;11908;50.806;4.424;2022-09-13T13:53:45;7.97;;;2.40;;
23470;SDS011;11908;50.806;4.424;2022-09-13T13:58:45;4.50;;;2.55;;
23470;SDS011;11908;50.806;4.424;2022-09-13T14:01:31;6.38;;;2.90;;
23470;SDS011;11908;50.806;4.424;2022-09-13T14:20:55;6.72;;;2.85;;
23470;SDS011;11908;50.806;4.424;2022-09-13T14:26:41;10.05;;;3.25;;
23470;SDS011;11908;50.806;4.424;2022-09-13T14:29:08;9.40;;;3.53;;
23470;SDS011;11908;50.806;4.424;2022-09-13T14:31:34;9.57;;;3.40;;
23470;SDS011;11908;50.806;4.424;2022-09-13T14:34:01;7.07;;;3.65;;
23470;SDS011;11908;50.806;4.424;2022-09-13T14:36:27;10.48;;;3.75;;
23470;SDS011;11908;50.806;4.424;2022-09-13T14:38:57;9.73;;;3.85;;
23470;SDS011;11908;50.806;4.424;2022-09-13T14:41:31;7.28;;;3.63;;
23470;SDS011;11908;50.806;4.424;2022-09-13T14:44:15;9.32;;;3.85;;
23470;SDS011;11908;50.806;4.424;2022-09-13T14:46:44;5.85;;;3.88;;
23470;SDS011;11908;50.806;4.424;2022-09-13T14:49:22;6.85;;;3.75;;
23470;SDS011;11908;50.806;4.424;2022-09-13T14:51:51;6.47;;;3.88;;
23470;SDS011;11908;50.806;4.424;2022-09-13T14:54:46;7.80;;;3.53;;
23470;SDS011;11908;50.806;4.424;2022-09-13T14:57:27;8.48;;;3.80;;
23470;SDS011;11908;50.806;4.424;2022-09-13T14:59:59;6.30;;;3.70;;
23470;SDS011;11908;50.806;4.424;2022-09-13T15:02:50;8.30;;;4.05;;
23470;SDS011;11908;50.806;4.424;2022-09-13T15:05:23;6.43;;;3.55;;
23470;SDS011;11908;50.806;4.424;2022-09-13T15:07:51;8.38;;;3.83;;
23470;SDS011;11908;50.806;4.424;2022-09-13T15:12:53;7.13;;;3.88;;
23470;SDS011;11908;50.806;4.424;2022-09-13T15:15:39;7.72;;;3.97;;
23470;SDS011;11908;50.806;4.424;2022-09-13T15:23:15;13.40;;;3.88;;
23470;SDS011;11908;50.806;4.424;2022-09-13T15:25:54;9.82;;;4.07;;
23470;SDS011;11908;50.806;4.424;2022-09-13T15:28:28;6.47;;;4.30;;
23470;SDS011;11908;50.806;4.424;2022-09-13T15:30:57;10.77;;;4.07;;
23470;SDS011;11908;50.806;4.424;2022-09-13T15:33:28;10.43;;;4.43;;
23470;SDS011;11908;50.806;4.424;2022-09-13T15:39:12;8.13;;;4.00;;
23470;SDS011;11908;50.806;4.424;2022-09-13T15:42:05;5.78;;;4.00;;
23470;SDS011;11908;50.806;4.424;2022-09-13T15:44:29;8.25;;;4.00;;
23470;SDS011;11908;50.806;4.424;2022-09-13T15:46:58;9.57;;;4.50;;
23470;SDS011;11908;50.806;4.424;2022-09-13T15:49:27;8.13;;;3.60;;
23470;SDS011;11908;50.806;4.424;2022-09-13T15:51:55;11.07;;;3.88;;
23470;SDS011;11908;50.806;4.424;2022-09-13T15:54:22;8.63;;;3.92;;
23470;SDS011;11908;50.806;4.424;2022-09-13T15:56:50;4.78;;;3.75;;
23470;SDS011;11908;50.806;4.424;2022-09-13T15:59:17;8.45;;;4.00;;
23470;SDS011;11908;50.806;4.424;2022-09-13T16:01:44;7.15;;;3.85;;
23470;SDS011;11908;50.806;4.424;2022-09-13T16:04:12;5.88;;;3.45;;
23470;SDS011;11908;50.806;4.424;2022-09-13T16:06:38;7.03;;;4.07;;
23470;SDS011;11908;50.806;4.424;2022-09-13T16:09:06;6.28;;;3.47;;
23470;SDS011;11908;50.806;4.424;2022-09-13T16:11:41;10.98;;;3.92;;
23470;SDS011;11908;50.806;4.424;2022-09-13T16:14:06;9.55;;;3.90;;
23470;SDS011;11908;50.806;4.424;2022-09-13T16:16:32;6.38;;;3.92;;
23470;SDS011;11908;50.806;4.424;2022-09-13T16:18:58;7.18;;;4.15;;
23470;SDS011;11908;50.806;4.424;2022-09-13T16:21:23;8.10;;;4.03;;
23470;SDS011;11908;50.806;4.424;2022-09-13T16:23:49;9.27;;;4.53;;
23470;SDS011;11908;50.806;4.424;2022-09-13T16:26:14;6.93;;;4.03;;
23470;SDS011;11908;50.806;4.424;2022-09-13T16:28:40;9.70;;;4.32;;
23470;SDS011;11908;50.806;4.424;2022-09-13T16:31:06;6.93;;;4.20;;
23470;SDS011;11908;50.806;4.424;2022-09-13T16:33:31;13.85;;;5.00;;
23470;SDS011;11908;50.806;4.424;2022-09-13T16:35:57;6.28;;;4.80;;
23470;SDS011;11908;50.806;4.424;2022-09-13T16:38:23;10.30;;;4.30;;
23470;SDS011;11908;50.806;4.424;2022-09-13T16:40:48;6.22;;;4.07;;
23470;SDS011;11908;50.806;4.424;2022-09-13T16:43:14;10.38;;;4.97;;
23470;SDS011;11908;50.806;4.424;2022-09-13T16:45:40;8.18;;;4.78;;
23470;SDS011;11908;50.806;4.424;2022-09-13T16:48:06;6.88;;;4.47;;
23470;SDS011;11908;50.806;4.424;2022-09-13T16:50:33;8.88;;;5.15;;
23470;SDS011;11908;50.806;4.424;2022-09-13T16:53:00;10.02;;;5.45;;
23470;SDS011;11908;50.806;4.424;2022-09-13T16:55:25;6.85;;;5.18;;
23470;SDS011;11908;50.806;4.424;2022-09-13T16:57:51;9.23;;;5.15;;
23470;SDS011;11908;50.806;4.424;2022-09-13T17:00:17;7.03;;;4.82;;
23470;SDS011;11908;50.806;4.424;2022-09-13T17:02:44;8.30;;;4.40;;
23470;SDS011;11908;50.806;4.424;2022-09-13T17:05:11;5.65;;;4.35;;
23470;SDS011;11908;50.806;4.424;2022-09-13T17:07:37;7.93;;;4.32;;
23470;SDS011;11908;50.806;4.424;2022-09-13T17:10:04;8.50;;;4.53;;
23470;SDS011;11908;50.806;4.424;2022-09-13T17:12:31;5.53;;;4.25;;
23470;SDS011;11908;50.806;4.424;2022-09-13T17:14:57;7.18;;;4.40;;
23470;SDS011;11908;50.806;4.424;2022-09-13T17:17:24;7.47;;;4.85;;
23470;SDS011;11908;50.806;4.424;2022-09-13T17:19:49;6.70;;;4.47;;
23470;SDS011;11908;50.806;4.424;2022-09-13T17:22:16;8.20;;;5.13;;
23470;SDS011;11908;50.806;4.424;2022-09-13T17:24:42;8.50;;;5.72;;
23470;SDS011;11908;50.806;4.424;2022-09-13T17:27:08;7.20;;;5.00;;
23470;SDS011;11908;50.806;4.424;2022-09-13T17:29:34;8.68;;;5.82;;
23470;SDS011;11908;50.806;4.424;2022-09-13T17:32:00;8.63;;;5.70;;
23470;SDS011;11908;50.806;4.424;2022-09-13T17:34:28;11.23;;;5.65;;
23470;SDS011;11908;50.806;4.424;2022-09-13T17:36:54;8.80;;;5.85;;
23470;SDS011;11908;50.806;4.424;2022-09-13T17:39:21;8.52;;;6.15;;
23470;SDS011;11908;50.806;4.424;2022-09-13T17:41:46;10.02;;;6.43;;
23470;SDS011;11908;50.806;4.424;2022-09-13T17:44:15;7.53;;;5.40;;
23470;SDS011;11908;50.806;4.424;2022-09-13T17:46:41;8.43;;;6.35;;
23470;SDS011;11908;50.806;4.424;2022-09-13T17:49:07;12.57;;;6.10;;
23470;SDS011;11908;50.806;4.424;2022-09-13T17:51:33;10.98;;;6.20;;
23470;SDS011;11908;50.806;4.424;2022-09-13T17:54:00;9.10;;;5.65;;
23470;SDS011;11908;50.806;4.424;2022-09-13T17:56:29;7.25;;;5.75;;
23470;SDS011;11908;50.806;4.424;2022-09-13T17:59:13;10.57;;;5.05;;
23470;SDS011;11908;50.806;4.424;2022-09-13T18:01:42;9.05;;;5.22;;
23470;SDS011;11908;50.806;4.424;2022-09-13T18:04:09;9.27;;;4.97;;
23470;SDS011;11908;50.806;4.424;2022-09-13T18:06:36;8.18;;;5.28;;
23470;SDS011;11908;50.806;4.424;2022-09-13T18:09:04;9.65;;;5.47;;
23470;SDS011;11908;50.806;4.424;2022-09-13T18:11:31;11.05;;;5.80;;
23470;SDS011;11908;50.806;4.424;2022-09-13T18:13:57;8.18;;;5.63;;
23470;SDS011;11908;50.806;4.424;2022-09-13T18:16:23;12.77;;;5.43;;